createdAt,value
2018-01-20T04:32:35.912Z,2.08
2018-01-20T04:35:09.776Z,3.22
2018-01-20T04:37:43.548Z,2.60
2018-01-20T04:40:17.340Z,2.25
2018-01-20T04:42:52.960Z,1.67
2018-01-20T04:45:26.755Z,6.93
2018-01-20T04:48:01.607Z,5.25
2018-01-20T04:50:36.535Z,4.00
2018-01-20T04:53:10.544Z,4.55
2018-01-20T04:55:45.062Z,3.55
2018-01-20T04:58:39.649Z,3.75
2018-01-20T05:01:13.255Z,3.45
2018-01-20T05:03:47.097Z,2.97
2018-01-20T05:06:21.804Z,1.95
2018-01-20T05:08:55.633Z,3.30
2018-01-20T05:11:31.255Z,5.20
2018-01-20T05:14:05.120Z,4.72
2018-01-20T05:16:38.943Z,2.08
2018-01-20T05:19:12.702Z,3.45
2018-01-20T05:21:46.639Z,3.10
2018-01-20T05:24:21.176Z,1.67
2018-01-20T05:26:54.931Z,2.75
2018-01-20T05:29:28.701Z,2.75
2018-01-20T05:32:02.635Z,1.58
2018-01-20T05:34:36.495Z,5.00
2018-01-20T05:37:10.311Z,1.98
2018-01-20T05:39:44.062Z,6.35
2018-01-20T05:42:17.792Z,2.70
2018-01-20T05:44:51.516Z,2.15
2018-01-20T05:47:25.348Z,2.08
2018-01-20T05:49:59.155Z,2.92
2018-01-20T05:52:32.961Z,2.70
2018-01-20T05:55:06.704Z,1.98
2018-01-20T05:57:40.384Z,1.75
2018-01-20T06:00:14.894Z,1.65
2018-01-20T06:02:48.545Z,2.22
2018-01-20T06:05:23.104Z,4.78
2018-01-20T06:07:56.892Z,2.58
2018-01-20T06:10:30.616Z,1.85
2018-01-20T06:13:05.592Z,4.82
2018-01-20T06:15:40.272Z,5.03
2018-01-20T06:18:14.036Z,3.85
2018-01-20T06:20:47.818Z,10.63
2018-01-20T06:23:21.608Z,5.18
2018-01-20T06:25:56.122Z,6.85
2018-01-20T06:28:30.004Z,4.95
2018-01-20T06:33:22.548Z,1.85
2018-01-20T06:35:56.429Z,2.20
2018-01-20T06:38:30.260Z,2.17
2018-01-20T06:41:04.036Z,4.20
2018-01-20T06:43:37.875Z,1.60
2018-01-20T06:46:11.639Z,1.35
2018-01-20T06:48:46.171Z,1.65
2018-01-20T06:51:19.941Z,1.50
2018-01-20T06:53:53.559Z,2.12
2018-01-20T06:56:27.366Z,2.40
2018-01-20T06:59:01.891Z,2.30
2018-01-20T07:01:36.402Z,3.28
2018-01-20T07:04:10.124Z,3.50
2018-01-20T07:06:43.836Z,3.65
2018-01-20T07:09:17.525Z,4.20
2018-01-20T07:11:51.317Z,3.28
2018-01-20T07:14:25.324Z,3.20
2018-01-20T07:16:59.167Z,4.90
2018-01-20T07:19:33.002Z,2.90
2018-01-20T07:22:06.959Z,2.85
2018-01-20T07:24:40.545Z,3.50
2018-01-20T07:27:14.336Z,4.55
2018-01-20T07:29:48.994Z,4.18
2018-01-20T07:32:23.126Z,4.57
2018-01-20T07:34:56.820Z,2.30
2018-01-20T07:37:30.579Z,4.18
2018-01-20T07:40:10.600Z,4.18
2018-01-20T07:42:45.247Z,4.15
2018-01-20T07:45:19.699Z,3.92
2018-01-20T07:47:53.451Z,3.97
2018-01-20T07:50:27.286Z,2.65
2018-01-20T07:53:01.217Z,6.43
2018-01-20T07:55:35.776Z,3.35
2018-01-20T07:58:09.449Z,1.90
2018-01-20T08:00:43.346Z,4.43
2018-01-20T08:03:17.202Z,4.65
2018-01-20T08:05:50.903Z,4.65
2018-01-20T08:08:25.383Z,3.40
2018-01-20T08:10:59.184Z,3.33
2018-01-20T08:13:33.008Z,5.07
2018-01-20T08:16:07.632Z,3.53
2018-01-20T08:18:43.815Z,3.30
2018-01-20T08:21:17.528Z,3.83
2018-01-20T08:23:52.125Z,2.87
2018-01-20T08:26:26.776Z,4.20
2018-01-20T08:29:00.579Z,2.53
2018-01-20T08:31:34.588Z,4.70
2018-01-20T08:34:09.357Z,2.50
2018-01-20T08:36:43.801Z,2.70
2018-01-20T08:39:17.540Z,2.47
2018-01-20T08:41:51.661Z,2.50
2018-01-20T08:44:26.164Z,2.95
2018-01-20T08:46:59.884Z,2.85
2018-01-20T08:49:33.699Z,4.03
2018-01-20T08:52:08.508Z,5.07
2018-01-20T08:54:42.322Z,3.40
2018-01-20T08:57:16.085Z,3.15
2018-01-20T08:59:49.884Z,2.58
2018-01-20T09:02:24.344Z,3.55
2018-01-20T09:04:58.835Z,5.55
2018-01-20T09:07:32.620Z,6.50
2018-01-20T09:10:06.379Z,5.55
2018-01-20T09:12:40.236Z,5.20
2018-01-20T09:15:14.096Z,3.28
2018-01-20T09:17:48.727Z,4.50
2018-01-20T09:20:22.505Z,3.58
2018-01-20T09:22:56.377Z,3.08
2018-01-20T09:25:30.183Z,12.02
2018-01-20T09:28:03.984Z,3.60
2018-01-20T09:30:37.791Z,8.05
2018-01-20T09:33:11.620Z,4.70
2018-01-20T09:35:46.212Z,2.85
2018-01-20T09:38:20.819Z,5.18
2018-01-20T09:40:55.211Z,3.90
2018-01-20T09:43:29.384Z,7.75
2018-01-20T09:46:03.227Z,3.42
2018-01-20T09:48:36.997Z,2.83
2018-01-20T09:51:10.875Z,2.80
2018-01-20T09:53:44.716Z,2.50
2018-01-20T09:56:18.525Z,2.62
2018-01-20T09:58:52.393Z,4.00
2018-01-20T10:01:27.009Z,4.22
2018-01-20T10:04:00.729Z,2.95
2018-01-20T10:06:34.599Z,3.50
2018-01-20T10:09:09.256Z,5.85
2018-01-20T10:11:42.968Z,3.45
2018-01-20T10:14:16.775Z,5.35
2018-01-20T10:16:50.583Z,4.70
2018-01-20T10:19:24.463Z,3.40
2018-01-20T10:21:59.052Z,2.65
2018-01-20T10:24:33.020Z,3.28
2018-01-20T10:27:06.872Z,3.20
2018-01-20T10:29:41.555Z,2.03
2018-01-20T10:32:16.179Z,4.35
2018-01-20T10:34:49.936Z,4.97
2018-01-20T10:37:23.837Z,5.70
2018-01-20T10:39:57.596Z,2.62
2018-01-20T10:42:32.227Z,2.40
2018-01-20T10:45:06.722Z,2.58
2018-01-20T10:47:40.500Z,3.37
2018-01-20T10:50:15.052Z,3.50
2018-01-20T10:52:49.244Z,2.30
2018-01-20T10:55:22.992Z,3.80
2018-01-20T10:57:56.826Z,5.82
2018-01-20T11:00:30.603Z,7.40
2018-01-20T11:03:04.428Z,3.53
2018-01-20T11:05:38.216Z,2.83
2018-01-20T11:08:12.160Z,3.95
2018-01-20T11:10:46.123Z,3.45
2018-01-20T11:13:22.783Z,4.47
2018-01-20T11:15:56.524Z,4.20
2018-01-20T11:18:30.300Z,2.97
2018-01-20T11:21:04.928Z,3.70
2018-01-20T11:23:38.743Z,3.20
2018-01-20T11:26:13.381Z,7.47
2018-01-20T11:28:47.969Z,2.45
2018-01-20T11:31:21.855Z,3.08
2018-01-20T11:33:56.400Z,2.30
2018-01-20T11:36:32.058Z,3.22
2018-01-20T11:39:05.991Z,2.10
2018-01-20T11:41:40.621Z,2.08
2018-01-20T11:44:14.419Z,2.50
2018-01-20T11:46:48.265Z,6.62
2018-01-20T11:49:22.931Z,3.92
2018-01-20T11:51:56.725Z,4.47
2018-01-20T11:54:30.520Z,5.75
2018-01-20T11:57:04.283Z,4.18
2018-01-20T11:59:38.107Z,4.57
2018-01-20T12:02:11.884Z,2.92
2018-01-20T12:04:45.648Z,1.58
2018-01-20T12:07:19.582Z,1.62
2018-01-20T12:09:54.465Z,1.85
2018-01-20T12:12:28.417Z,1.73
2018-01-20T12:15:02.273Z,2.22
2018-01-20T12:20:11.796Z,3.15
2018-01-20T12:22:46.476Z,3.47
2018-01-20T12:25:20.243Z,3.33
2018-01-20T12:27:54.104Z,2.95
2018-01-20T12:30:27.860Z,2.20
2018-01-20T12:33:01.676Z,3.40
2018-01-20T12:35:35.407Z,3.12
2018-01-20T12:38:10.255Z,2.15
2018-01-20T12:40:44.059Z,5.82
2018-01-20T12:43:17.708Z,2.12
2018-01-20T12:45:52.282Z,2.60
2018-01-20T12:48:25.974Z,1.23
2018-01-20T12:50:59.751Z,2.97
2018-01-20T12:53:33.543Z,1.80
2018-01-20T12:56:08.148Z,3.35
2018-01-20T12:58:42.153Z,1.70
2018-01-20T13:01:15.756Z,1.83
2018-01-20T13:03:51.083Z,4.30
2018-01-20T13:06:24.802Z,1.70
2018-01-20T13:08:58.634Z,5.55
2018-01-20T13:11:33.412Z,1.98
2018-01-20T13:14:08.082Z,1.73
2018-01-20T13:16:42.848Z,2.35
2018-01-20T13:19:16.600Z,1.12
2018-01-20T13:21:52.679Z,2.08
2018-01-20T13:24:26.523Z,3.17
2018-01-20T13:27:00.572Z,3.25
2018-01-20T13:29:34.377Z,5.40
2018-01-20T13:32:10.029Z,1.90
2018-01-20T13:34:44.540Z,1.20
2018-01-20T13:37:19.064Z,2.55
2018-01-20T13:39:55.511Z,1.02
2018-01-20T13:42:29.385Z,3.92
2018-01-20T13:45:03.408Z,2.08
2018-01-20T13:47:37.262Z,1.40
2018-01-20T13:50:11.676Z,2.03
2018-01-20T13:52:45.548Z,3.78
2018-01-20T13:55:22.065Z,2.67
2018-01-20T13:57:56.586Z,2.00
2018-01-20T14:00:31.112Z,3.10
2018-01-20T14:03:05.129Z,2.12
2018-01-20T14:05:38.923Z,2.37
2018-01-20T14:08:13.019Z,2.95
2018-01-20T14:10:46.887Z,2.67
2018-01-20T14:13:22.605Z,4.43
2018-01-20T14:15:56.328Z,2.72
2018-01-20T14:18:30.161Z,3.00
2018-01-20T14:21:03.942Z,6.30
2018-01-20T14:23:38.555Z,2.25
2018-01-20T14:26:13.150Z,6.72
2018-01-20T14:28:46.899Z,4.62
2018-01-20T14:31:20.669Z,4.03
2018-01-20T14:33:54.583Z,3.28
2018-01-20T14:36:29.413Z,3.10
2018-01-20T14:39:03.238Z,3.95
2018-01-20T14:41:36.836Z,2.05
2018-01-20T14:44:11.459Z,1.80
2018-01-20T14:46:45.384Z,2.15
2018-01-20T14:49:19.199Z,2.20
2018-01-20T14:51:53.806Z,1.35
2018-01-20T14:54:27.520Z,2.45
2018-01-20T14:57:02.219Z,1.10
2018-01-20T14:59:36.040Z,2.78
2018-01-20T15:02:10.076Z,2.05
2018-01-20T15:04:44.030Z,1.30
2018-01-20T15:07:18.096Z,1.75
2018-01-20T15:09:51.781Z,1.92
2018-01-20T15:12:26.795Z,2.05
2018-01-20T15:15:00.688Z,1.00
2018-01-20T15:17:34.427Z,1.60
2018-01-20T15:20:08.139Z,4.53
2018-01-20T15:22:42.754Z,1.98
2018-01-20T15:25:17.344Z,3.83
2018-01-20T15:27:51.505Z,2.35
2018-01-20T15:30:25.250Z,2.92
2018-01-20T15:32:59.171Z,2.75
2018-01-20T15:35:33.117Z,2.55
2018-01-20T15:38:06.827Z,4.65
2018-01-20T15:40:40.641Z,5.85
2018-01-20T15:43:14.744Z,5.22
2018-01-20T15:45:50.244Z,6.20
2018-01-20T15:48:24.588Z,5.57
2018-01-20T15:50:58.441Z,6.50
2018-01-20T15:53:32.199Z,5.12
2018-01-20T15:56:06.035Z,5.15
2018-01-20T15:58:40.031Z,4.72
2018-01-20T16:01:13.891Z,4.80
2018-01-20T16:03:47.730Z,5.05
2018-01-20T16:06:23.071Z,4.28
2018-01-20T16:08:56.987Z,3.90
2018-01-20T16:11:31.492Z,4.75
2018-01-20T16:14:06.227Z,5.03
2018-01-20T16:16:39.939Z,4.90
2018-01-20T16:19:13.780Z,3.65
2018-01-20T16:21:47.642Z,5.05
2018-01-20T16:24:21.423Z,7.18
2018-01-20T16:26:55.235Z,5.22
2018-01-20T16:29:29.037Z,2.97
2018-01-20T16:32:02.728Z,6.70
2018-01-20T16:34:36.608Z,5.00
2018-01-20T16:37:10.424Z,6.05
2018-01-20T16:39:44.917Z,4.25
2018-01-20T16:42:19.550Z,4.20
2018-01-20T16:44:53.294Z,3.58
2018-01-20T16:47:27.059Z,4.53
2018-01-20T16:50:02.296Z,4.43
2018-01-20T16:52:36.067Z,4.05
2018-01-20T16:55:10.726Z,5.12
2018-01-20T16:57:45.285Z,3.53
2018-01-20T17:00:19.026Z,4.10
2018-01-20T17:02:53.595Z,4.28
2018-01-20T17:05:28.011Z,5.03
2018-01-20T17:08:02.422Z,5.05
2018-01-20T17:10:36.236Z,5.18
2018-01-20T17:13:10.563Z,3.42
2018-01-20T17:15:44.244Z,4.95
2018-01-20T17:18:18.854Z,4.03
2018-01-20T17:20:52.751Z,5.32
2018-01-20T17:23:26.436Z,4.18
2018-01-20T17:26:00.160Z,5.32
2018-01-20T17:28:33.948Z,5.40
2018-01-20T17:31:07.658Z,4.93
2018-01-20T17:33:41.407Z,7.10
2018-01-20T17:36:15.162Z,7.15
2018-01-20T17:38:48.879Z,5.68
2018-01-20T17:41:23.436Z,4.15
2018-01-20T17:43:57.855Z,4.12
2018-01-20T17:46:31.552Z,5.35
2018-01-20T17:49:05.375Z,6.50
2018-01-20T17:51:39.214Z,5.30
2018-01-20T17:54:12.979Z,4.90
2018-01-20T17:56:46.769Z,6.43
2018-01-20T17:59:21.213Z,4.35
2018-01-20T18:01:55.799Z,5.10
2018-01-20T18:04:29.741Z,5.78
2018-01-20T18:07:03.511Z,6.32
2018-01-20T18:09:37.301Z,4.37
2018-01-20T18:12:11.056Z,6.68
2018-01-20T18:14:44.847Z,7.03
2018-01-20T18:17:18.631Z,5.05
2018-01-20T18:19:53.291Z,6.50
2018-01-20T18:22:27.001Z,5.90
2018-01-20T18:25:00.906Z,5.37
2018-01-20T18:27:35.504Z,4.82
2018-01-20T18:30:09.382Z,5.00
2018-01-20T18:32:43.972Z,6.10
2018-01-20T18:35:17.779Z,5.07
2018-01-20T18:37:51.576Z,7.03
2018-01-20T18:40:25.388Z,7.75
2018-01-20T18:42:59.222Z,7.68
2018-01-20T18:45:33.813Z,15.70
2018-01-20T18:48:07.635Z,8.18
2018-01-20T18:50:41.435Z,6.82
2018-01-20T18:53:15.196Z,7.82
2018-01-20T18:55:48.970Z,9.95
2018-01-20T18:58:22.632Z,7.93
2018-01-20T19:00:56.447Z,7.15
2018-01-20T19:03:30.208Z,11.90
2018-01-20T19:06:04.006Z,7.68
2018-01-20T19:08:38.472Z,5.93
2018-01-20T19:11:12.610Z,6.60
2018-01-20T19:13:46.975Z,6.68
2018-01-20T19:16:20.878Z,8.15
2018-01-20T19:18:54.736Z,7.25
2018-01-20T19:21:29.306Z,10.07
2018-01-20T19:24:03.091Z,10.88
2018-01-20T19:26:36.852Z,10.57
2018-01-20T19:29:10.742Z,8.65
2018-01-20T19:31:44.508Z,7.97
2018-01-20T19:34:19.220Z,7.47
2018-01-20T19:36:53.718Z,7.07
2018-01-20T19:39:27.617Z,8.65
2018-01-20T19:42:01.323Z,9.75
2018-01-20T19:44:36.224Z,8.55
2018-01-20T19:47:10.041Z,11.82
2018-01-20T19:49:45.583Z,13.52
2018-01-20T19:52:19.330Z,7.87
2018-01-20T19:54:53.131Z,7.25
2018-01-20T19:57:26.871Z,5.72
2018-01-20T20:00:00.627Z,7.22
2018-01-20T20:02:34.464Z,7.12
2018-01-20T20:05:08.307Z,6.80
2018-01-20T20:07:42.847Z,7.70
2018-01-20T20:10:16.642Z,8.25
2018-01-20T20:12:50.715Z,8.25
2018-01-20T20:15:24.601Z,10.63
2018-01-20T20:17:58.374Z,8.02
2018-01-20T20:20:32.195Z,7.37
2018-01-20T20:23:05.993Z,9.45
2018-01-20T20:25:40.084Z,7.82
2018-01-20T20:28:13.864Z,8.30
2018-01-20T20:30:47.694Z,9.13
2018-01-20T20:33:21.517Z,9.75
2018-01-20T20:35:55.278Z,11.35
2018-01-20T20:38:29.168Z,11.00
2018-01-20T20:41:03.807Z,9.18
2018-01-20T20:43:38.448Z,9.40
2018-01-20T20:46:12.143Z,11.93
2018-01-20T20:48:46.791Z,9.18
2018-01-20T20:51:20.516Z,10.40
2018-01-20T20:53:54.241Z,10.10
2018-01-20T20:56:27.964Z,11.88
2018-01-20T20:59:02.496Z,16.12
2018-01-20T21:01:36.157Z,10.32
2018-01-20T21:04:10.083Z,13.50
2018-01-20T21:06:43.848Z,20.10
2018-01-20T21:09:18.659Z,30.65
2018-01-20T21:11:52.503Z,22.10
2018-01-20T21:14:26.319Z,13.50
2018-01-20T21:17:00.907Z,14.30
2018-01-20T21:19:34.692Z,11.77
2018-01-20T21:22:11.277Z,13.30
2018-01-20T21:24:45.811Z,9.98
2018-01-20T21:27:19.774Z,13.75
2018-01-20T21:29:53.534Z,9.50
2018-01-20T21:32:27.296Z,8.15
2018-01-20T21:35:01.111Z,8.07
2018-01-20T21:37:34.901Z,6.62
2018-01-20T21:40:08.818Z,7.43
2018-01-20T21:42:43.360Z,6.20
2018-01-20T21:45:16.995Z,6.80
2018-01-20T21:47:50.816Z,10.80
2018-01-20T21:50:25.007Z,6.80
2018-01-20T21:52:58.661Z,6.05
2018-01-20T21:55:33.231Z,6.68
2018-01-20T21:58:06.973Z,6.97
